sensor_id;sensor_type;location;lat;lon;timestamp;P1;durP1;ratioP1;P2;durP2;ratioP2
4460;SDS011;2243;48.812;9.232;2023-07-30T00:00:35;9.00;;;4.67;;
4460;SDS011;2243;48.812;9.232;2023-07-30T00:03:05;4.67;;;4.10;;
4460;SDS011;2243;48.812;9.232;2023-07-30T00:05:36;7.17;;;3.87;;
4460;SDS011;2243;48.812;9.232;2023-07-30T00:08:07;4.30;;;3.87;;
4460;SDS011;2243;48.812;9.232;2023-07-30T00:10:38;2.87;;;2.70;;
4460;SDS011;2243;48.812;9.232;2023-07-30T00:13:09;3.03;;;2.77;;
4460;SDS011;2243;48.812;9.232;2023-07-30T00:15:40;3.53;;;3.20;;
4460;SDS011;2243;48.812;9.232;2023-07-30T00:18:11;2.73;;;2.27;;
4460;SDS011;2243;48.812;9.232;2023-07-30T00:20:43;3.77;;;2.50;;
4460;SDS011;2243;48.812;9.232;2023-07-30T00:23:14;3.07;;;2.67;;
4460;SDS011;2243;48.812;9.232;2023-07-30T00:25:45;4.43;;;2.77;;
4460;SDS011;2243;48.812;9.232;2023-07-30T00:28:16;4.17;;;2.83;;
4460;SDS011;2243;48.812;9.232;2023-07-30T00:30:47;2.37;;;2.23;;
4460;SDS011;2243;48.812;9.232;2023-07-30T00:33:18;2.33;;;2.13;;
4460;SDS011;2243;48.812;9.232;2023-07-30T00:35:50;2.67;;;2.10;;
4460;SDS011;2243;48.812;9.232;2023-07-30T00:38:22;3.47;;;2.13;;
4460;SDS011;2243;48.812;9.232;2023-07-30T00:40:53;2.63;;;1.93;;
4460;SDS011;2243;48.812;9.232;2023-07-30T00:43:25;2.50;;;2.40;;
4460;SDS011;2243;48.812;9.232;2023-07-30T00:45:56;4.50;;;2.30;;
4460;SDS011;2243;48.812;9.232;2023-07-30T00:48:27;2.80;;;2.00;;
4460;SDS011;2243;48.812;9.232;2023-07-30T00:50:59;2.27;;;2.17;;
4460;SDS011;2243;48.812;9.232;2023-07-30T00:53:31;1.73;;;1.63;;
4460;SDS011;2243;48.812;9.232;2023-07-30T00:56:02;2.13;;;1.90;;
4460;SDS011;2243;48.812;9.232;2023-07-30T00:58:33;2.30;;;2.20;;
4460;SDS011;2243;48.812;9.232;2023-07-30T01:01:05;2.20;;;2.00;;
4460;SDS011;2243;48.812;9.232;2023-07-30T01:03:36;2.73;;;1.80;;
4460;SDS011;2243;48.812;9.232;2023-07-30T01:06:07;1.87;;;1.60;;
4460;SDS011;2243;48.812;9.232;2023-07-30T01:08:38;2.17;;;2.07;;
4460;SDS011;2243;48.812;9.232;2023-07-30T01:11:09;2.17;;;2.03;;
4460;SDS011;2243;48.812;9.232;2023-07-30T01:13:40;2.00;;;1.90;;
4460;SDS011;2243;48.812;9.232;2023-07-30T01:16:16;2.13;;;2.03;;
4460;SDS011;2243;48.812;9.232;2023-07-30T01:18:47;2.20;;;2.00;;
4460;SDS011;2243;48.812;9.232;2023-07-30T01:21:18;2.30;;;2.20;;
4460;SDS011;2243;48.812;9.232;2023-07-30T01:23:49;2.53;;;2.33;;
4460;SDS011;2243;48.812;9.232;2023-07-30T01:26:22;2.70;;;2.43;;
4460;SDS011;2243;48.812;9.232;2023-07-30T01:28:58;2.83;;;2.63;;
4460;SDS011;2243;48.812;9.232;2023-07-30T01:31:31;3.30;;;2.50;;
4460;SDS011;2243;48.812;9.232;2023-07-30T01:34:05;3.03;;;2.83;;
4460;SDS011;2243;48.812;9.232;2023-07-30T01:36:39;3.07;;;2.80;;
4460;SDS011;2243;48.812;9.232;2023-07-30T01:39:11;2.60;;;2.40;;
4460;SDS011;2243;48.812;9.232;2023-07-30T01:41:43;3.60;;;3.20;;
4460;SDS011;2243;48.812;9.232;2023-07-30T01:44:14;2.90;;;2.70;;
4460;SDS011;2243;48.812;9.232;2023-07-30T01:46:45;3.10;;;2.90;;
4460;SDS011;2243;48.812;9.232;2023-07-30T01:49:15;2.83;;;2.70;;
4460;SDS011;2243;48.812;9.232;2023-07-30T01:51:46;2.80;;;2.60;;
4460;SDS011;2243;48.812;9.232;2023-07-30T01:54:18;3.70;;;2.70;;
4460;SDS011;2243;48.812;9.232;2023-07-30T01:56:50;3.23;;;3.03;;
4460;SDS011;2243;48.812;9.232;2023-07-30T01:59:22;3.30;;;3.10;;
4460;SDS011;2243;48.812;9.232;2023-07-30T02:01:53;2.63;;;2.50;;
4460;SDS011;2243;48.812;9.232;2023-07-30T02:04:24;3.57;;;2.40;;
4460;SDS011;2243;48.812;9.232;2023-07-30T02:06:55;3.20;;;3.10;;
4460;SDS011;2243;48.812;9.232;2023-07-30T02:09:26;3.90;;;2.90;;
4460;SDS011;2243;48.812;9.232;2023-07-30T02:11:57;3.33;;;3.13;;
4460;SDS011;2243;48.812;9.232;2023-07-30T02:14:28;3.50;;;3.27;;
4460;SDS011;2243;48.812;9.232;2023-07-30T02:16:59;6.30;;;3.37;;
4460;SDS011;2243;48.812;9.232;2023-07-30T02:19:30;3.27;;;3.07;;
4460;SDS011;2243;48.812;9.232;2023-07-30T02:22:01;3.70;;;3.40;;
4460;SDS011;2243;48.812;9.232;2023-07-30T02:24:32;3.40;;;3.13;;
4460;SDS011;2243;48.812;9.232;2023-07-30T02:27:03;3.77;;;3.47;;
4460;SDS011;2243;48.812;9.232;2023-07-30T02:29:34;6.37;;;3.70;;
4460;SDS011;2243;48.812;9.232;2023-07-30T02:32:05;5.63;;;5.13;;
4460;SDS011;2243;48.812;9.232;2023-07-30T02:34:37;5.60;;;3.90;;
4460;SDS011;2243;48.812;9.232;2023-07-30T02:37:08;4.97;;;4.57;;
4460;SDS011;2243;48.812;9.232;2023-07-30T02:39:39;5.43;;;4.63;;
4460;SDS011;2243;48.812;9.232;2023-07-30T02:42:11;3.93;;;3.73;;
4460;SDS011;2243;48.812;9.232;2023-07-30T02:44:42;4.90;;;4.43;;
4460;SDS011;2243;48.812;9.232;2023-07-30T02:47:13;5.23;;;4.73;;
4460;SDS011;2243;48.812;9.232;2023-07-30T02:49:44;5.07;;;4.67;;
4460;SDS011;2243;48.812;9.232;2023-07-30T02:52:14;4.60;;;4.20;;
4460;SDS011;2243;48.812;9.232;2023-07-30T02:54:45;4.53;;;4.13;;
4460;SDS011;2243;48.812;9.232;2023-07-30T02:57:16;4.97;;;4.50;;
4460;SDS011;2243;48.812;9.232;2023-07-30T02:59:47;6.00;;;5.00;;
4460;SDS011;2243;48.812;9.232;2023-07-30T03:02:18;6.37;;;4.63;;
4460;SDS011;2243;48.812;9.232;2023-07-30T03:04:49;8.57;;;4.97;;
4460;SDS011;2243;48.812;9.232;2023-07-30T03:07:20;6.30;;;5.70;;
4460;SDS011;2243;48.812;9.232;2023-07-30T03:09:51;4.93;;;4.63;;
4460;SDS011;2243;48.812;9.232;2023-07-30T03:12:22;8.23;;;5.77;;
4460;SDS011;2243;48.812;9.232;2023-07-30T03:14:53;4.80;;;4.43;;
4460;SDS011;2243;48.812;9.232;2023-07-30T03:17:25;5.10;;;4.60;;
4460;SDS011;2243;48.812;9.232;2023-07-30T03:19:56;4.97;;;4.57;;
4460;SDS011;2243;48.812;9.232;2023-07-30T03:22:27;5.10;;;4.67;;
4460;SDS011;2243;48.812;9.232;2023-07-30T03:24:58;7.27;;;4.30;;
4460;SDS011;2243;48.812;9.232;2023-07-30T03:27:28;4.67;;;4.33;;
4460;SDS011;2243;48.812;9.232;2023-07-30T03:29:59;6.10;;;4.37;;
4460;SDS011;2243;48.812;9.232;2023-07-30T03:32:30;4.63;;;3.90;;
4460;SDS011;2243;48.812;9.232;2023-07-30T03:35:01;4.37;;;4.10;;
4460;SDS011;2243;48.812;9.232;2023-07-30T03:37:33;4.50;;;4.10;;
4460;SDS011;2243;48.812;9.232;2023-07-30T03:40:04;3.50;;;3.30;;
4460;SDS011;2243;48.812;9.232;2023-07-30T03:42:35;7.23;;;4.00;;
4460;SDS011;2243;48.812;9.232;2023-07-30T03:45:06;6.73;;;4.00;;
4460;SDS011;2243;48.812;9.232;2023-07-30T03:47:38;5.20;;;4.70;;
4460;SDS011;2243;48.812;9.232;2023-07-30T03:50:09;5.10;;;4.60;;
4460;SDS011;2243;48.812;9.232;2023-07-30T03:52:40;4.77;;;4.37;;
4460;SDS011;2243;48.812;9.232;2023-07-30T03:55:11;4.00;;;3.70;;
4460;SDS011;2243;48.812;9.232;2023-07-30T03:57:42;3.67;;;3.37;;
4460;SDS011;2243;48.812;9.232;2023-07-30T04:00:13;4.10;;;3.80;;
4460;SDS011;2243;48.812;9.232;2023-07-30T04:02:44;3.67;;;3.47;;
4460;SDS011;2243;48.812;9.232;2023-07-30T04:05:15;4.20;;;3.90;;
4460;SDS011;2243;48.812;9.232;2023-07-30T04:07:45;11.47;;;4.80;;
4460;SDS011;2243;48.812;9.232;2023-07-30T04:10:16;3.57;;;3.27;;
4460;SDS011;2243;48.812;9.232;2023-07-30T04:12:47;3.70;;;3.40;;
4460;SDS011;2243;48.812;9.232;2023-07-30T04:15:18;6.87;;;4.03;;
4460;SDS011;2243;48.812;9.232;2023-07-30T04:17:49;5.67;;;3.53;;
4460;SDS011;2243;48.812;9.232;2023-07-30T04:20:20;3.93;;;3.70;;
4460;SDS011;2243;48.812;9.232;2023-07-30T04:22:51;4.37;;;4.07;;
4460;SDS011;2243;48.812;9.232;2023-07-30T04:25:22;4.40;;;4.10;;
4460;SDS011;2243;48.812;9.232;2023-07-30T04:27:53;7.13;;;4.03;;
4460;SDS011;2243;48.812;9.232;2023-07-30T04:30:24;5.83;;;4.33;;
4460;SDS011;2243;48.812;9.232;2023-07-30T04:32:55;4.30;;;4.00;;
4460;SDS011;2243;48.812;9.232;2023-07-30T04:35:26;4.67;;;4.23;;
4460;SDS011;2243;48.812;9.232;2023-07-30T04:37:58;3.73;;;3.43;;
4460;SDS011;2243;48.812;9.232;2023-07-30T04:40:29;4.53;;;4.17;;
4460;SDS011;2243;48.812;9.232;2023-07-30T04:43:00;4.47;;;3.83;;
4460;SDS011;2243;48.812;9.232;2023-07-30T04:45:30;7.70;;;4.07;;
4460;SDS011;2243;48.812;9.232;2023-07-30T04:48:01;4.40;;;4.13;;
4460;SDS011;2243;48.812;9.232;2023-07-30T04:50:33;4.17;;;3.87;;
4460;SDS011;2243;48.812;9.232;2023-07-30T04:53:04;5.87;;;3.77;;
4460;SDS011;2243;48.812;9.232;2023-07-30T04:55:34;3.93;;;3.73;;
4460;SDS011;2243;48.812;9.232;2023-07-30T04:58:05;4.50;;;4.10;;
4460;SDS011;2243;48.812;9.232;2023-07-30T05:00:36;4.37;;;3.93;;
4460;SDS011;2243;48.812;9.232;2023-07-30T05:03:07;3.73;;;3.43;;
4460;SDS011;2243;48.812;9.232;2023-07-30T05:05:41;4.43;;;4.10;;
4460;SDS011;2243;48.812;9.232;2023-07-30T05:08:12;3.37;;;3.17;;
4460;SDS011;2243;48.812;9.232;2023-07-30T05:10:43;5.40;;;4.10;;
4460;SDS011;2243;48.812;9.232;2023-07-30T05:13:14;3.70;;;3.50;;
4460;SDS011;2243;48.812;9.232;2023-07-30T05:15:45;5.73;;;3.47;;
4460;SDS011;2243;48.812;9.232;2023-07-30T05:18:15;4.00;;;3.70;;
4460;SDS011;2243;48.812;9.232;2023-07-30T05:20:46;2.70;;;2.60;;
4460;SDS011;2243;48.812;9.232;2023-07-30T05:23:17;3.37;;;3.17;;
4460;SDS011;2243;48.812;9.232;2023-07-30T05:25:49;3.33;;;3.13;;
4460;SDS011;2243;48.812;9.232;2023-07-30T05:28:21;4.10;;;3.80;;
4460;SDS011;2243;48.812;9.232;2023-07-30T05:30:52;3.67;;;3.37;;
4460;SDS011;2243;48.812;9.232;2023-07-30T05:33:22;2.70;;;2.50;;
4460;SDS011;2243;48.812;9.232;2023-07-30T05:35:53;3.87;;;3.47;;
4460;SDS011;2243;48.812;9.232;2023-07-30T05:38:24;3.23;;;3.03;;
4460;SDS011;2243;48.812;9.232;2023-07-30T05:40:55;5.17;;;3.33;;
4460;SDS011;2243;48.812;9.232;2023-07-30T05:43:26;3.07;;;2.87;;
4460;SDS011;2243;48.812;9.232;2023-07-30T05:45:57;3.83;;;3.33;;
4460;SDS011;2243;48.812;9.232;2023-07-30T05:48:28;3.57;;;3.20;;
4460;SDS011;2243;48.812;9.232;2023-07-30T05:50:59;2.93;;;2.63;;
4460;SDS011;2243;48.812;9.232;2023-07-30T05:53:30;2.67;;;2.53;;
4460;SDS011;2243;48.812;9.232;2023-07-30T05:56:01;2.43;;;2.23;;
4460;SDS011;2243;48.812;9.232;2023-07-30T05:58:32;2.90;;;2.70;;
4460;SDS011;2243;48.812;9.232;2023-07-30T06:01:03;2.90;;;2.70;;
4460;SDS011;2243;48.812;9.232;2023-07-30T06:03:34;2.50;;;2.40;;
4460;SDS011;2243;48.812;9.232;2023-07-30T06:06:05;2.40;;;2.20;;
4460;SDS011;2243;48.812;9.232;2023-07-30T06:08:36;3.53;;;2.33;;
4460;SDS011;2243;48.812;9.232;2023-07-30T06:11:07;2.40;;;2.27;;
4460;SDS011;2243;48.812;9.232;2023-07-30T06:13:38;5.70;;;2.70;;
4460;SDS011;2243;48.812;9.232;2023-07-30T06:16:09;2.40;;;2.30;;
4460;SDS011;2243;48.812;9.232;2023-07-30T06:18:40;2.40;;;2.30;;
4460;SDS011;2243;48.812;9.232;2023-07-30T06:21:11;2.10;;;2.00;;
4460;SDS011;2243;48.812;9.232;2023-07-30T06:23:42;3.13;;;2.93;;
4460;SDS011;2243;48.812;9.232;2023-07-30T06:26:13;2.37;;;2.27;;
4460;SDS011;2243;48.812;9.232;2023-07-30T06:28:44;2.80;;;2.60;;
4460;SDS011;2243;48.812;9.232;2023-07-30T06:31:15;2.80;;;2.60;;
4460;SDS011;2243;48.812;9.232;2023-07-30T06:33:46;2.90;;;2.73;;
4460;SDS011;2243;48.812;9.232;2023-07-30T06:36:17;3.03;;;2.80;;
4460;SDS011;2243;48.812;9.232;2023-07-30T06:38:48;3.37;;;3.10;;
4460;SDS011;2243;48.812;9.232;2023-07-30T06:41:19;3.03;;;2.83;;
4460;SDS011;2243;48.812;9.232;2023-07-30T06:43:51;3.20;;;3.00;;
4460;SDS011;2243;48.812;9.232;2023-07-30T06:46:22;4.13;;;3.50;;
4460;SDS011;2243;48.812;9.232;2023-07-30T06:48:53;3.80;;;3.53;;
4460;SDS011;2243;48.812;9.232;2023-07-30T06:51:24;3.40;;;3.20;;
4460;SDS011;2243;48.812;9.232;2023-07-30T06:53:55;4.13;;;3.73;;
4460;SDS011;2243;48.812;9.232;2023-07-30T06:56:26;6.87;;;4.20;;
4460;SDS011;2243;48.812;9.232;2023-07-30T06:58:59;3.97;;;3.67;;
4460;SDS011;2243;48.812;9.232;2023-07-30T07:01:30;4.20;;;3.90;;
4460;SDS011;2243;48.812;9.232;2023-07-30T07:04:01;3.20;;;3.00;;
4460;SDS011;2243;48.812;9.232;2023-07-30T07:06:32;4.37;;;3.97;;
4460;SDS011;2243;48.812;9.232;2023-07-30T07:09:03;3.20;;;3.03;;
4460;SDS011;2243;48.812;9.232;2023-07-30T07:11:34;3.60;;;3.33;;
4460;SDS011;2243;48.812;9.232;2023-07-30T07:14:06;3.00;;;2.80;;
4460;SDS011;2243;48.812;9.232;2023-07-30T07:16:37;2.90;;;2.80;;
4460;SDS011;2243;48.812;9.232;2023-07-30T07:19:08;4.20;;;3.30;;
4460;SDS011;2243;48.812;9.232;2023-07-30T07:21:39;3.07;;;2.87;;
4460;SDS011;2243;48.812;9.232;2023-07-30T07:24:10;3.80;;;2.90;;
4460;SDS011;2243;48.812;9.232;2023-07-30T07:26:41;3.03;;;2.90;;
4460;SDS011;2243;48.812;9.232;2023-07-30T07:29:12;2.90;;;2.80;;
4460;SDS011;2243;48.812;9.232;2023-07-30T07:31:42;3.00;;;2.80;;
4460;SDS011;2243;48.812;9.232;2023-07-30T07:34:15;2.83;;;2.63;;
4460;SDS011;2243;48.812;9.232;2023-07-30T07:36:47;3.07;;;2.87;;
4460;SDS011;2243;48.812;9.232;2023-07-30T07:39:17;2.53;;;2.33;;
4460;SDS011;2243;48.812;9.232;2023-07-30T07:41:49;3.07;;;2.87;;
4460;SDS011;2243;48.812;9.232;2023-07-30T07:44:20;2.37;;;2.17;;
4460;SDS011;2243;48.812;9.232;2023-07-30T07:46:52;3.37;;;2.50;;
4460;SDS011;2243;48.812;9.232;2023-07-30T07:49:23;2.17;;;2.00;;
4460;SDS011;2243;48.812;9.232;2023-07-30T07:51:54;1.80;;;1.70;;
4460;SDS011;2243;48.812;9.232;2023-07-30T07:54:25;3.00;;;2.13;;
4460;SDS011;2243;48.812;9.232;2023-07-30T07:56:56;2.33;;;2.13;;
4460;SDS011;2243;48.812;9.232;2023-07-30T07:59:27;2.40;;;2.20;;
4460;SDS011;2243;48.812;9.232;2023-07-30T08:01:58;2.50;;;2.30;;
4460;SDS011;2243;48.812;9.232;2023-07-30T08:04:29;2.20;;;2.10;;
4460;SDS011;2243;48.812;9.232;2023-07-30T08:07:00;2.80;;;2.60;;
4460;SDS011;2243;48.812;9.232;2023-07-30T08:09:33;3.17;;;2.10;;
4460;SDS011;2243;48.812;9.232;2023-07-30T08:12:04;2.57;;;2.40;;
4460;SDS011;2243;48.812;9.232;2023-07-30T08:14:36;2.40;;;2.30;;
4460;SDS011;2243;48.812;9.232;2023-07-30T08:17:06;2.70;;;2.60;;
4460;SDS011;2243;48.812;9.232;2023-07-30T08:19:37;4.20;;;2.67;;
4460;SDS011;2243;48.812;9.232;2023-07-30T08:22:08;2.17;;;2.07;;
4460;SDS011;2243;48.812;9.232;2023-07-30T08:24:39;6.70;;;3.27;;
4460;SDS011;2243;48.812;9.232;2023-07-30T08:27:10;3.00;;;2.80;;
4460;SDS011;2243;48.812;9.232;2023-07-30T08:29:41;2.37;;;2.17;;
4460;SDS011;2243;48.812;9.232;2023-07-30T08:32:12;2.10;;;2.00;;
4460;SDS011;2243;48.812;9.232;2023-07-30T08:34:43;2.07;;;1.97;;
4460;SDS011;2243;48.812;9.232;2023-07-30T08:37:14;2.60;;;2.27;;
4460;SDS011;2243;48.812;9.232;2023-07-30T08:39:45;1.90;;;1.80;;
4460;SDS011;2243;48.812;9.232;2023-07-30T08:42:19;1.80;;;1.70;;
4460;SDS011;2243;48.812;9.232;2023-07-30T08:44:50;3.53;;;2.00;;
4460;SDS011;2243;48.812;9.232;2023-07-30T08:47:21;2.50;;;2.10;;
4460;SDS011;2243;48.812;9.232;2023-07-30T08:49:52;3.10;;;1.90;;
4460;SDS011;2243;48.812;9.232;2023-07-30T08:52:23;1.97;;;1.87;;
4460;SDS011;2243;48.812;9.232;2023-07-30T08:54:55;1.90;;;1.80;;
4460;SDS011;2243;48.812;9.232;2023-07-30T08:57:29;2.10;;;1.97;;
4460;SDS011;2243;48.812;9.232;2023-07-30T09:05:22;2.20;;;2.10;;
4460;SDS011;2243;48.812;9.232;2023-07-30T09:07:53;2.20;;;1.80;;
4460;SDS011;2243;48.812;9.232;2023-07-30T09:10:25;1.90;;;1.80;;
4460;SDS011;2243;48.812;9.232;2023-07-30T09:12:57;3.80;;;2.47;;
4460;SDS011;2243;48.812;9.232;2023-07-30T09:15:33;2.60;;;2.40;;
4460;SDS011;2243;48.812;9.232;2023-07-30T09:18:08;2.40;;;2.30;;
4460;SDS011;2243;48.812;9.232;2023-07-30T09:20:40;3.20;;;2.00;;
4460;SDS011;2243;48.812;9.232;2023-07-30T09:23:12;2.67;;;2.37;;
4460;SDS011;2243;48.812;9.232;2023-07-30T09:25:44;2.23;;;2.10;;
4460;SDS011;2243;48.812;9.232;2023-07-30T09:28:19;3.23;;;2.00;;
4460;SDS011;2243;48.812;9.232;2023-07-30T09:30:50;2.60;;;1.80;;
4460;SDS011;2243;48.812;9.232;2023-07-30T09:33:22;3.50;;;1.73;;
4460;SDS011;2243;48.812;9.232;2023-07-30T09:35:53;2.23;;;2.00;;
4460;SDS011;2243;48.812;9.232;2023-07-30T09:38:25;2.10;;;2.00;;
4460;SDS011;2243;48.812;9.232;2023-07-30T09:41:02;2.50;;;2.30;;
4460;SDS011;2243;48.812;9.232;2023-07-30T09:43:33;2.00;;;1.90;;
4460;SDS011;2243;48.812;9.232;2023-07-30T09:46:06;2.33;;;2.17;;
4460;SDS011;2243;48.812;9.232;2023-07-30T09:48:37;2.57;;;2.37;;
4460;SDS011;2243;48.812;9.232;2023-07-30T09:51:08;2.43;;;2.23;;
4460;SDS011;2243;48.812;9.232;2023-07-30T09:53:39;2.10;;;2.00;;
4460;SDS011;2243;48.812;9.232;2023-07-30T09:56:11;2.10;;;2.00;;
4460;SDS011;2243;48.812;9.232;2023-07-30T09:58:42;2.77;;;2.57;;
4460;SDS011;2243;48.812;9.232;2023-07-30T10:01:13;3.40;;;2.90;;
4460;SDS011;2243;48.812;9.232;2023-07-30T10:03:45;5.43;;;2.00;;
4460;SDS011;2243;48.812;9.232;2023-07-30T10:06:16;2.43;;;2.30;;
4460;SDS011;2243;48.812;9.232;2023-07-30T10:08:48;2.10;;;1.93;;
4460;SDS011;2243;48.812;9.232;2023-07-30T10:11:20;2.77;;;2.47;;
4460;SDS011;2243;48.812;9.232;2023-07-30T10:13:52;2.27;;;2.17;;
4460;SDS011;2243;48.812;9.232;2023-07-30T10:16:28;2.50;;;2.00;;
4460;SDS011;2243;48.812;9.232;2023-07-30T10:18:59;2.47;;;2.37;;
4460;SDS011;2243;48.812;9.232;2023-07-30T10:21:32;2.63;;;2.23;;
4460;SDS011;2243;48.812;9.232;2023-07-30T10:24:03;2.10;;;2.00;;
4460;SDS011;2243;48.812;9.232;2023-07-30T10:26:35;2.20;;;2.07;;
4460;SDS011;2243;48.812;9.232;2023-07-30T10:31:54;2.63;;;2.53;;
4460;SDS011;2243;48.812;9.232;2023-07-30T10:34:27;4.07;;;2.40;;
4460;SDS011;2243;48.812;9.232;2023-07-30T10:37:18;2.37;;;2.17;;
4460;SDS011;2243;48.812;9.232;2023-07-30T10:39:51;2.10;;;2.00;;
4460;SDS011;2243;48.812;9.232;2023-07-30T10:42:22;4.10;;;2.77;;
4460;SDS011;2243;48.812;9.232;2023-07-30T10:44:52;2.57;;;2.47;;
4460;SDS011;2243;48.812;9.232;2023-07-30T10:47:28;2.57;;;2.40;;
4460;SDS011;2243;48.812;9.232;2023-07-30T10:50:06;2.50;;;2.33;;
4460;SDS011;2243;48.812;9.232;2023-07-30T10:52:40;2.47;;;2.27;;
4460;SDS011;2243;48.812;9.232;2023-07-30T10:55:11;2.30;;;2.20;;
4460;SDS011;2243;48.812;9.232;2023-07-30T10:57:42;2.83;;;2.50;;
4460;SDS011;2243;48.812;9.232;2023-07-30T11:00:13;2.30;;;2.20;;
4460;SDS011;2243;48.812;9.232;2023-07-30T11:02:52;2.60;;;2.40;;
4460;SDS011;2243;48.812;9.232;2023-07-30T11:05:24;3.33;;;2.30;;
4460;SDS011;2243;48.812;9.232;2023-07-30T11:07:55;2.50;;;2.23;;
4460;SDS011;2243;48.812;9.232;2023-07-30T11:10:26;2.20;;;2.10;;
4460;SDS011;2243;48.812;9.232;2023-07-30T11:12:58;2.23;;;2.07;;
4460;SDS011;2243;48.812;9.232;2023-07-30T11:15:29;2.50;;;2.30;;
4460;SDS011;2243;48.812;9.232;2023-07-30T11:18:00;4.03;;;2.00;;
4460;SDS011;2243;48.812;9.232;2023-07-30T11:20:32;19.80;;;8.53;;
4460;SDS011;2243;48.812;9.232;2023-07-30T11:23:16;3.83;;;2.13;;
4460;SDS011;2243;48.812;9.232;2023-07-30T11:25:51;1.87;;;1.77;;
4460;SDS011;2243;48.812;9.232;2023-07-30T11:28:31;5.73;;;2.33;;
4460;SDS011;2243;48.812;9.232;2023-07-30T11:31:12;6.90;;;2.33;;
4460;SDS011;2243;48.812;9.232;2023-07-30T11:33:47;2.40;;;2.20;;
4460;SDS011;2243;48.812;9.232;2023-07-30T11:36:20;2.63;;;2.20;;
4460;SDS011;2243;48.812;9.232;2023-07-30T11:38:52;4.23;;;2.30;;
4460;SDS011;2243;48.812;9.232;2023-07-30T11:41:24;4.27;;;2.00;;
4460;SDS011;2243;48.812;9.232;2023-07-30T11:43:55;2.13;;;1.87;;
4460;SDS011;2243;48.812;9.232;2023-07-30T11:46:26;11.50;;;2.27;;
4460;SDS011;2243;48.812;9.232;2023-07-30T11:49:11;11.23;;;2.50;;
4460;SDS011;2243;48.812;9.232;2023-07-30T11:51:51;2.00;;;1.90;;
4460;SDS011;2243;48.812;9.232;2023-07-30T11:54:36;2.57;;;2.37;;
4460;SDS011;2243;48.812;9.232;2023-07-30T11:57:07;2.30;;;2.10;;
4460;SDS011;2243;48.812;9.232;2023-07-30T11:59:38;2.63;;;2.43;;
4460;SDS011;2243;48.812;9.232;2023-07-30T12:02:17;2.63;;;2.43;;
4460;SDS011;2243;48.812;9.232;2023-07-30T12:04:48;2.97;;;2.77;;
4460;SDS011;2243;48.812;9.232;2023-07-30T12:07:35;4.30;;;1.93;;
4460;SDS011;2243;48.812;9.232;2023-07-30T12:10:12;2.50;;;2.00;;
4460;SDS011;2243;48.812;9.232;2023-07-30T12:12:44;2.30;;;2.20;;
4460;SDS011;2243;48.812;9.232;2023-07-30T12:15:16;2.00;;;1.90;;
4460;SDS011;2243;48.812;9.232;2023-07-30T12:17:47;5.40;;;2.03;;
4460;SDS011;2243;48.812;9.232;2023-07-30T12:20:18;2.83;;;2.53;;
4460;SDS011;2243;48.812;9.232;2023-07-30T12:22:49;1.93;;;1.83;;
4460;SDS011;2243;48.812;9.232;2023-07-30T12:25:20;2.60;;;2.20;;
4460;SDS011;2243;48.812;9.232;2023-07-30T12:27:51;2.30;;;2.10;;
4460;SDS011;2243;48.812;9.232;2023-07-30T12:30:22;3.00;;;2.57;;
4460;SDS011;2243;48.812;9.232;2023-07-30T12:32:53;1.97;;;1.87;;
4460;SDS011;2243;48.812;9.232;2023-07-30T12:35:25;1.97;;;1.87;;
4460;SDS011;2243;48.812;9.232;2023-07-30T12:37:56;1.93;;;1.80;;
4460;SDS011;2243;48.812;9.232;2023-07-30T12:40:28;2.27;;;2.17;;
4460;SDS011;2243;48.812;9.232;2023-07-30T12:43:04;2.10;;;1.93;;
4460;SDS011;2243;48.812;9.232;2023-07-30T12:45:35;2.33;;;2.20;;
4460;SDS011;2243;48.812;9.232;2023-07-30T12:48:06;1.70;;;1.60;;
4460;SDS011;2243;48.812;9.232;2023-07-30T12:50:38;3.00;;;1.80;;
4460;SDS011;2243;48.812;9.232;2023-07-30T12:53:09;3.33;;;2.30;;
4460;SDS011;2243;48.812;9.232;2023-07-30T12:55:40;2.33;;;2.13;;
4460;SDS011;2243;48.812;9.232;2023-07-30T12:58:12;3.03;;;2.57;;
4460;SDS011;2243;48.812;9.232;2023-07-30T13:00:43;3.40;;;1.90;;
4460;SDS011;2243;48.812;9.232;2023-07-30T13:03:14;2.57;;;2.37;;
4460;SDS011;2243;48.812;9.232;2023-07-30T13:05:48;4.73;;;2.20;;
4460;SDS011;2243;48.812;9.232;2023-07-30T13:08:19;2.33;;;2.23;;
4460;SDS011;2243;48.812;9.232;2023-07-30T13:10:51;8.93;;;2.30;;
4460;SDS011;2243;48.812;9.232;2023-07-30T13:13:22;1.73;;;1.63;;
4460;SDS011;2243;48.812;9.232;2023-07-30T13:15:54;2.00;;;1.90;;
4460;SDS011;2243;48.812;9.232;2023-07-30T13:18:28;2.03;;;1.90;;
4460;SDS011;2243;48.812;9.232;2023-07-30T13:20:59;1.97;;;1.87;;
4460;SDS011;2243;48.812;9.232;2023-07-30T13:23:30;2.03;;;1.93;;
4460;SDS011;2243;48.812;9.232;2023-07-30T13:26:02;1.97;;;1.87;;
4460;SDS011;2243;48.812;9.232;2023-07-30T13:28:33;1.93;;;1.73;;
4460;SDS011;2243;48.812;9.232;2023-07-30T13:31:04;2.43;;;2.23;;
4460;SDS011;2243;48.812;9.232;2023-07-30T13:33:36;2.13;;;1.90;;
4460;SDS011;2243;48.812;9.232;2023-07-30T13:36:07;2.13;;;1.93;;
4460;SDS011;2243;48.812;9.232;2023-07-30T13:38:38;2.27;;;1.40;;
4460;SDS011;2243;48.812;9.232;2023-07-30T13:41:13;1.93;;;1.80;;
4460;SDS011;2243;48.812;9.232;2023-07-30T13:43:44;1.60;;;1.50;;
4460;SDS011;2243;48.812;9.232;2023-07-30T13:46:18;4.20;;;2.10;;
4460;SDS011;2243;48.812;9.232;2023-07-30T13:48:49;3.47;;;2.27;;
4460;SDS011;2243;48.812;9.232;2023-07-30T13:51:20;1.70;;;1.60;;
4460;SDS011;2243;48.812;9.232;2023-07-30T13:53:51;5.37;;;1.73;;
4460;SDS011;2243;48.812;9.232;2023-07-30T13:56:22;2.03;;;1.93;;
4460;SDS011;2243;48.812;9.232;2023-07-30T13:58:53;4.23;;;1.63;;
4460;SDS011;2243;48.812;9.232;2023-07-30T14:01:24;1.80;;;1.57;;
4460;SDS011;2243;48.812;9.232;2023-07-30T14:03:56;2.87;;;1.80;;
4460;SDS011;2243;48.812;9.232;2023-07-30T14:06:27;1.93;;;1.80;;
4460;SDS011;2243;48.812;9.232;2023-07-30T14:08:59;2.37;;;2.17;;
4460;SDS011;2243;48.812;9.232;2023-07-30T14:11:30;2.20;;;2.10;;
4460;SDS011;2243;48.812;9.232;2023-07-30T14:14:01;3.87;;;2.00;;
4460;SDS011;2243;48.812;9.232;2023-07-30T14:16:32;2.80;;;1.80;;
4460;SDS011;2243;48.812;9.232;2023-07-30T14:19:03;5.10;;;2.03;;
4460;SDS011;2243;48.812;9.232;2023-07-30T14:21:34;2.33;;;2.07;;
4460;SDS011;2243;48.812;9.232;2023-07-30T14:24:06;2.37;;;1.80;;
4460;SDS011;2243;48.812;9.232;2023-07-30T14:26:37;2.00;;;1.90;;
4460;SDS011;2243;48.812;9.232;2023-07-30T14:29:08;2.63;;;2.10;;
4460;SDS011;2243;48.812;9.232;2023-07-30T14:31:39;4.07;;;1.90;;
4460;SDS011;2243;48.812;9.232;2023-07-30T14:34:10;6.17;;;1.90;;
4460;SDS011;2243;48.812;9.232;2023-07-30T14:36:42;4.53;;;1.90;;
4460;SDS011;2243;48.812;9.232;2023-07-30T14:39:13;2.20;;;1.63;;
4460;SDS011;2243;48.812;9.232;2023-07-30T14:41:45;2.00;;;1.80;;
4460;SDS011;2243;48.812;9.232;2023-07-30T14:44:16;2.13;;;1.77;;
4460;SDS011;2243;48.812;9.232;2023-07-30T14:46:48;2.80;;;1.87;;
4460;SDS011;2243;48.812;9.232;2023-07-30T14:49:19;4.57;;;2.00;;
4460;SDS011;2243;48.812;9.232;2023-07-30T14:51:50;2.87;;;2.00;;
4460;SDS011;2243;48.812;9.232;2023-07-30T14:54:23;4.40;;;1.83;;
4460;SDS011;2243;48.812;9.232;2023-07-30T14:56:53;3.80;;;1.83;;
4460;SDS011;2243;48.812;9.232;2023-07-30T14:59:25;3.33;;;1.80;;
4460;SDS011;2243;48.812;9.232;2023-07-30T15:01:56;3.13;;;1.60;;
4460;SDS011;2243;48.812;9.232;2023-07-30T15:04:27;1.80;;;1.60;;
4460;SDS011;2243;48.812;9.232;2023-07-30T15:06:59;1.63;;;1.53;;
4460;SDS011;2243;48.812;9.232;2023-07-30T15:09:30;5.03;;;1.80;;
4460;SDS011;2243;48.812;9.232;2023-07-30T15:12:05;1.80;;;1.70;;
4460;SDS011;2243;48.812;9.232;2023-07-30T15:14:37;2.00;;;1.83;;
4460;SDS011;2243;48.812;9.232;2023-07-30T15:17:09;1.80;;;1.70;;
4460;SDS011;2243;48.812;9.232;2023-07-30T15:19:40;2.37;;;1.50;;
4460;SDS011;2243;48.812;9.232;2023-07-30T15:22:10;2.57;;;1.67;;
4460;SDS011;2243;48.812;9.232;2023-07-30T15:24:41;3.33;;;1.60;;
4460;SDS011;2243;48.812;9.232;2023-07-30T15:27:12;2.73;;;1.63;;
4460;SDS011;2243;48.812;9.232;2023-07-30T15:29:43;2.13;;;1.43;;
4460;SDS011;2243;48.812;9.232;2023-07-30T15:32:14;2.40;;;1.53;;
4460;SDS011;2243;48.812;9.232;2023-07-30T15:34:46;4.93;;;1.57;;
4460;SDS011;2243;48.812;9.232;2023-07-30T15:37:20;2.47;;;1.50;;
4460;SDS011;2243;48.812;9.232;2023-07-30T15:39:53;1.53;;;1.10;;
4460;SDS011;2243;48.812;9.232;2023-07-30T15:42:24;2.50;;;1.50;;
4460;SDS011;2243;48.812;9.232;2023-07-30T15:44:58;4.60;;;1.60;;
4460;SDS011;2243;48.812;9.232;2023-07-30T15:47:29;1.80;;;1.50;;
4460;SDS011;2243;48.812;9.232;2023-07-30T15:50:00;1.50;;;1.40;;